sensor_id;sensor_type;location;lat;lon;timestamp;pressure;altitude;pressure_sealevel;temperature;humidity
61478;BME280;47345;52.334;10.392;2023-07-13T00:00:48;100596.16;;;19.14;66.12
61478;BME280;47345;52.334;10.392;2023-07-13T00:03:19;100595.21;;;19.16;66.00
61478;BME280;47345;52.334;10.392;2023-07-13T00:06:00;100601.77;;;19.17;66.06
61478;BME280;47345;52.334;10.392;2023-07-13T00:08:33;100599.64;;;19.16;66.10
61478;BME280;47345;52.334;10.392;2023-07-13T00:11:04;100601.87;;;19.16;66.05
61478;BME280;47345;52.334;10.392;2023-07-13T00:13:36;100602.68;;;19.14;66.44
61478;BME280;47345;52.334;10.392;2023-07-13T00:16:09;100604.88;;;19.12;67.01
61478;BME280;47345;52.334;10.392;2023-07-13T00:18:42;100606.15;;;19.10;66.97
61478;BME280;47345;52.334;10.392;2023-07-13T00:21:13;100605.65;;;19.10;66.75
61478;BME280;47345;52.334;10.392;2023-07-13T00:23:44;100603.27;;;19.09;66.73
61478;BME280;47345;52.334;10.392;2023-07-13T00:26:15;100603.99;;;19.09;67.20
61478;BME280;47345;52.334;10.392;2023-07-13T00:28:47;100607.35;;;19.04;67.37
61478;BME280;47345;52.334;10.392;2023-07-13T00:31:18;100617.25;;;18.99;67.44
61478;BME280;47345;52.334;10.392;2023-07-13T00:33:48;100622.85;;;18.95;67.30
61478;BME280;47345;52.334;10.392;2023-07-13T00:36:21;100619.77;;;18.92;67.34
61478;BME280;47345;52.334;10.392;2023-07-13T00:38:52;100616.13;;;18.87;67.53
61478;BME280;47345;52.334;10.392;2023-07-13T00:41:23;100620.98;;;18.84;67.56
61478;BME280;47345;52.334;10.392;2023-07-13T00:43:54;100622.88;;;18.78;67.31
61478;BME280;47345;52.334;10.392;2023-07-13T00:46:28;100620.50;;;18.72;67.42
61478;BME280;47345;52.334;10.392;2023-07-13T00:49:02;100624.41;;;18.68;67.47
61478;BME280;47345;52.334;10.392;2023-07-13T00:51:39;100621.20;;;18.64;67.45
61478;BME280;47345;52.334;10.392;2023-07-13T00:54:14;100625.54;;;18.59;67.54
61478;BME280;47345;52.334;10.392;2023-07-13T00:56:47;100632.83;;;18.54;67.77
61478;BME280;47345;52.334;10.392;2023-07-13T00:59:19;100631.77;;;18.52;67.92
61478;BME280;47345;52.334;10.392;2023-07-13T01:01:52;100625.58;;;18.48;67.98
61478;BME280;47345;52.334;10.392;2023-07-13T01:04:25;100620.70;;;18.41;68.21
61478;BME280;47345;52.334;10.392;2023-07-13T01:06:57;100623.84;;;18.33;68.57
61478;BME280;47345;52.334;10.392;2023-07-13T01:09:28;100626.16;;;18.27;68.55
61478;BME280;47345;52.334;10.392;2023-07-13T01:12:00;100619.85;;;18.22;68.76
61478;BME280;47345;52.334;10.392;2023-07-13T01:14:30;100619.19;;;18.17;68.87
61478;BME280;47345;52.334;10.392;2023-07-13T01:17:01;100621.64;;;18.13;69.18
61478;BME280;47345;52.334;10.392;2023-07-13T01:19:37;100620.72;;;18.09;69.49
61478;BME280;47345;52.334;10.392;2023-07-13T01:22:10;100621.63;;;18.06;69.82
61478;BME280;47345;52.334;10.392;2023-07-13T01:24:42;100620.23;;;18.05;69.89
61478;BME280;47345;52.334;10.392;2023-07-13T01:27:15;100616.64;;;18.06;69.81
61478;BME280;47345;52.334;10.392;2023-07-13T01:29:46;100617.36;;;18.07;69.61
61478;BME280;47345;52.334;10.392;2023-07-13T01:32:19;100615.82;;;18.07;69.32
61478;BME280;47345;52.334;10.392;2023-07-13T01:34:54;100612.11;;;18.07;69.35
61478;BME280;47345;52.334;10.392;2023-07-13T01:37:27;100613.08;;;18.05;69.36
61478;BME280;47345;52.334;10.392;2023-07-13T01:40:01;100607.32;;;18.03;69.35
61478;BME280;47345;52.334;10.392;2023-07-13T01:42:34;100609.63;;;18.02;69.34
61478;BME280;47345;52.334;10.392;2023-07-13T01:45:06;100620.80;;;18.01;69.43
61478;BME280;47345;52.334;10.392;2023-07-13T01:47:37;100621.44;;;17.99;69.41
61478;BME280;47345;52.334;10.392;2023-07-13T01:50:09;100629.14;;;17.96;69.42
61478;BME280;47345;52.334;10.392;2023-07-13T01:52:40;100631.02;;;17.92;69.57
61478;BME280;47345;52.334;10.392;2023-07-13T01:55:11;100630.56;;;17.91;69.54
61478;BME280;47345;52.334;10.392;2023-07-13T01:57:43;100625.26;;;17.87;69.51
61478;BME280;47345;52.334;10.392;2023-07-13T02:00:15;100624.81;;;17.82;69.68
61478;BME280;47345;52.334;10.392;2023-07-13T02:02:46;100622.27;;;17.77;69.84
61478;BME280;47345;52.334;10.392;2023-07-13T02:05:18;100620.05;;;17.72;70.01
61478;BME280;47345;52.334;10.392;2023-07-13T02:07:49;100627.73;;;17.70;70.20
61478;BME280;47345;52.334;10.392;2023-07-13T02:10:21;100633.73;;;17.67;70.23
61478;BME280;47345;52.334;10.392;2023-07-13T02:12:51;100631.82;;;17.61;70.40
61478;BME280;47345;52.334;10.392;2023-07-13T02:15:22;100632.86;;;17.57;70.62
61478;BME280;47345;52.334;10.392;2023-07-13T02:17:53;100639.52;;;17.54;70.78
61478;BME280;47345;52.334;10.392;2023-07-13T02:20:25;100635.06;;;17.51;70.92
61478;BME280;47345;52.334;10.392;2023-07-13T02:22:56;100636.64;;;17.48;71.00
61478;BME280;47345;52.334;10.392;2023-07-13T02:25:27;100639.73;;;17.44;71.19
61478;BME280;47345;52.334;10.392;2023-07-13T02:27:58;100635.77;;;17.40;71.24
61478;BME280;47345;52.334;10.392;2023-07-13T02:30:29;100636.28;;;17.38;71.37
61478;BME280;47345;52.334;10.392;2023-07-13T02:33:00;100640.73;;;17.36;71.48
61478;BME280;47345;52.334;10.392;2023-07-13T02:35:30;100645.63;;;17.34;71.62
61478;BME280;47345;52.334;10.392;2023-07-13T02:38:01;100648.19;;;17.31;71.73
61478;BME280;47345;52.334;10.392;2023-07-13T02:40:32;100643.64;;;17.26;71.85
61478;BME280;47345;52.334;10.392;2023-07-13T02:43:04;100641.77;;;17.23;71.90
61478;BME280;47345;52.334;10.392;2023-07-13T02:45:35;100638.44;;;17.22;72.05
61478;BME280;47345;52.334;10.392;2023-07-13T02:48:06;100637.11;;;17.22;72.10
61478;BME280;47345;52.334;10.392;2023-07-13T02:50:37;100632.73;;;17.21;72.13
61478;BME280;47345;52.334;10.392;2023-07-13T02:53:08;100632.45;;;17.21;72.06
61478;BME280;47345;52.334;10.392;2023-07-13T02:55:39;100631.92;;;17.19;72.06
61478;BME280;47345;52.334;10.392;2023-07-13T02:58:10;100634.44;;;17.17;72.11
61478;BME280;47345;52.334;10.392;2023-07-13T03:00:41;100631.52;;;17.14;71.81
61478;BME280;47345;52.334;10.392;2023-07-13T03:03:12;100634.09;;;17.01;71.31
61478;BME280;47345;52.334;10.392;2023-07-13T03:05:44;100631.16;;;16.91;71.66
61478;BME280;47345;52.334;10.392;2023-07-13T03:08:20;100632.23;;;16.85;71.97
61478;BME280;47345;52.334;10.392;2023-07-13T03:11:00;100632.68;;;16.82;72.12
61478;BME280;47345;52.334;10.392;2023-07-13T03:13:31;100630.45;;;16.81;72.37
61478;BME280;47345;52.334;10.392;2023-07-13T03:16:02;100630.31;;;16.80;72.37
61478;BME280;47345;52.334;10.392;2023-07-13T03:18:33;100632.48;;;16.80;72.41
61478;BME280;47345;52.334;10.392;2023-07-13T03:21:05;100630.36;;;16.79;72.38
61478;BME280;47345;52.334;10.392;2023-07-13T03:23:36;100630.73;;;16.75;72.27
61478;BME280;47345;52.334;10.392;2023-07-13T03:26:08;100627.64;;;16.75;72.51
61478;BME280;47345;52.334;10.392;2023-07-13T03:28:40;100624.29;;;16.73;72.20
61478;BME280;47345;52.334;10.392;2023-07-13T03:31:14;100624.34;;;16.66;71.39
61478;BME280;47345;52.334;10.392;2023-07-13T03:33:46;100624.40;;;16.59;71.26
61478;BME280;47345;52.334;10.392;2023-07-13T03:36:20;100625.90;;;16.54;71.31
61478;BME280;47345;52.334;10.392;2023-07-13T03:38:52;100626.23;;;16.50;71.56
61478;BME280;47345;52.334;10.392;2023-07-13T03:41:24;100627.73;;;16.50;71.89
61478;BME280;47345;52.334;10.392;2023-07-13T03:43:55;100635.46;;;16.63;71.88
61478;BME280;47345;52.334;10.392;2023-07-13T03:46:26;100638.17;;;16.84;71.51
61478;BME280;47345;52.334;10.392;2023-07-13T03:48:57;100637.23;;;17.11;70.99
61478;BME280;47345;52.334;10.392;2023-07-13T03:51:28;100636.73;;;17.47;70.27
61478;BME280;47345;52.334;10.392;2023-07-13T03:54:00;100636.42;;;17.85;69.29
61478;BME280;47345;52.334;10.392;2023-07-13T03:56:32;100634.52;;;18.21;68.25
61478;BME280;47345;52.334;10.392;2023-07-13T03:59:03;100636.98;;;18.54;67.50
61478;BME280;47345;52.334;10.392;2023-07-13T04:01:34;100640.55;;;18.85;66.83
61478;BME280;47345;52.334;10.392;2023-07-13T04:04:05;100638.55;;;19.21;66.07
61478;BME280;47345;52.334;10.392;2023-07-13T04:06:36;100636.73;;;19.56;65.02
61478;BME280;47345;52.334;10.392;2023-07-13T04:09:08;100638.05;;;19.91;63.99
61478;BME280;47345;52.334;10.392;2023-07-13T04:11:38;100642.29;;;20.18;63.17
61478;BME280;47345;52.334;10.392;2023-07-13T04:14:10;100649.23;;;20.45;62.52
61478;BME280;47345;52.334;10.392;2023-07-13T04:16:41;100646.13;;;20.70;61.58
61478;BME280;47345;52.334;10.392;2023-07-13T04:19:12;100648.27;;;20.91;60.96
61478;BME280;47345;52.334;10.392;2023-07-13T04:21:43;100654.11;;;21.15;60.28
61478;BME280;47345;52.334;10.392;2023-07-13T04:24:15;100659.08;;;21.39;59.64
61478;BME280;47345;52.334;10.392;2023-07-13T04:26:46;100665.15;;;21.60;59.17
61478;BME280;47345;52.334;10.392;2023-07-13T04:29:17;100670.19;;;21.82;58.68
61478;BME280;47345;52.334;10.392;2023-07-13T04:31:48;100669.91;;;21.96;57.93
61478;BME280;47345;52.334;10.392;2023-07-13T04:34:19;100668.42;;;22.04;57.31
61478;BME280;47345;52.334;10.392;2023-07-13T04:36:50;100675.87;;;22.15;57.05
61478;BME280;47345;52.334;10.392;2023-07-13T04:39:22;100669.59;;;22.22;56.50
61478;BME280;47345;52.334;10.392;2023-07-13T04:41:52;100669.35;;;22.35;56.04
61478;BME280;47345;52.334;10.392;2023-07-13T04:44:25;100670.50;;;22.47;55.92
61478;BME280;47345;52.334;10.392;2023-07-13T04:46:56;100670.13;;;22.64;55.62
61478;BME280;47345;52.334;10.392;2023-07-13T04:49:27;100678.11;;;22.83;55.14
61478;BME280;47345;52.334;10.392;2023-07-13T04:51:58;100679.92;;;22.98;54.86
61478;BME280;47345;52.334;10.392;2023-07-13T04:54:29;100683.05;;;23.11;54.35
61478;BME280;47345;52.334;10.392;2023-07-13T04:56:59;100685.86;;;23.20;54.24
61478;BME280;47345;52.334;10.392;2023-07-13T04:59:30;100686.55;;;23.31;54.29
61478;BME280;47345;52.334;10.392;2023-07-13T05:02:01;100685.85;;;23.23;53.96
61478;BME280;47345;52.334;10.392;2023-07-13T05:04:33;100689.58;;;22.91;53.92
61478;BME280;47345;52.334;10.392;2023-07-13T05:07:04;100693.40;;;22.60;54.59
61478;BME280;47345;52.334;10.392;2023-07-13T05:09:36;100694.00;;;22.31;55.14
61478;BME280;47345;52.334;10.392;2023-07-13T05:12:08;100703.98;;;22.13;55.41
61478;BME280;47345;52.334;10.392;2023-07-13T05:14:40;100698.88;;;21.91;55.41
61478;BME280;47345;52.334;10.392;2023-07-13T05:17:10;100695.91;;;21.68;56.05
61478;BME280;47345;52.334;10.392;2023-07-13T05:19:41;100699.85;;;21.47;56.13
61478;BME280;47345;52.334;10.392;2023-07-13T05:22:12;100703.81;;;21.37;56.49
61478;BME280;47345;52.334;10.392;2023-07-13T05:24:43;100702.76;;;21.36;57.22
61478;BME280;47345;52.334;10.392;2023-07-13T05:27:14;100702.09;;;21.35;57.38
61478;BME280;47345;52.334;10.392;2023-07-13T05:29:45;100705.42;;;21.36;57.62
61478;BME280;47345;52.334;10.392;2023-07-13T05:32:16;100712.29;;;21.29;57.70
61478;BME280;47345;52.334;10.392;2023-07-13T05:34:47;100710.36;;;21.12;57.86
61478;BME280;47345;52.334;10.392;2023-07-13T05:37:17;100708.80;;;20.93;57.99
61478;BME280;47345;52.334;10.392;2023-07-13T05:39:48;100711.23;;;20.74;58.08
61478;BME280;47345;52.334;10.392;2023-07-13T05:42:19;100712.22;;;20.60;58.79
61478;BME280;47345;52.334;10.392;2023-07-13T05:44:49;100708.64;;;20.52;59.22
61478;BME280;47345;52.334;10.392;2023-07-13T05:47:20;100714.48;;;20.49;59.53
61478;BME280;47345;52.334;10.392;2023-07-13T05:49:51;100716.96;;;20.45;59.69
61478;BME280;47345;52.334;10.392;2023-07-13T05:52:23;100719.00;;;20.41;59.62
61478;BME280;47345;52.334;10.392;2023-07-13T05:54:54;100723.19;;;20.48;60.05
61478;BME280;47345;52.334;10.392;2023-07-13T05:57:25;100728.60;;;20.58;59.70
61478;BME280;47345;52.334;10.392;2023-07-13T05:59:56;100732.33;;;20.60;59.23
61478;BME280;47345;52.334;10.392;2023-07-13T06:02:27;100736.45;;;20.64;59.25
61478;BME280;47345;52.334;10.392;2023-07-13T06:04:58;100735.27;;;20.72;58.45
61478;BME280;47345;52.334;10.392;2023-07-13T06:07:29;100738.15;;;20.81;58.28
61478;BME280;47345;52.334;10.392;2023-07-13T06:10:00;100736.89;;;20.95;58.24
61478;BME280;47345;52.334;10.392;2023-07-13T06:12:31;100738.34;;;21.13;57.84
61478;BME280;47345;52.334;10.392;2023-07-13T06:15:02;100736.88;;;21.26;57.65
61478;BME280;47345;52.334;10.392;2023-07-13T06:17:33;100733.63;;;21.41;57.19
61478;BME280;47345;52.334;10.392;2023-07-13T06:20:06;100737.68;;;21.60;57.24
61478;BME280;47345;52.334;10.392;2023-07-13T06:22:37;100739.48;;;21.79;57.01
61478;BME280;47345;52.334;10.392;2023-07-13T06:25:10;100741.95;;;22.00;56.84
61478;BME280;47345;52.334;10.392;2023-07-13T06:27:41;100744.14;;;22.12;56.66
61478;BME280;47345;52.334;10.392;2023-07-13T06:30:13;100744.51;;;22.18;55.43
61478;BME280;47345;52.334;10.392;2023-07-13T06:32:44;100742.31;;;22.22;55.36
61478;BME280;47345;52.334;10.392;2023-07-13T06:35:15;100745.72;;;22.20;54.95
61478;BME280;47345;52.334;10.392;2023-07-13T06:37:46;100750.25;;;22.17;54.88
61478;BME280;47345;52.334;10.392;2023-07-13T06:40:17;100748.94;;;22.24;54.88
61478;BME280;47345;52.334;10.392;2023-07-13T06:42:48;100748.88;;;22.33;54.14
61478;BME280;47345;52.334;10.392;2023-07-13T06:45:19;100746.45;;;22.40;53.87
61478;BME280;47345;52.334;10.392;2023-07-13T06:47:50;100748.60;;;22.51;54.02
61478;BME280;47345;52.334;10.392;2023-07-13T06:50:21;100747.66;;;22.58;53.00
61478;BME280;47345;52.334;10.392;2023-07-13T06:52:51;100749.02;;;22.40;51.60
61478;BME280;47345;52.334;10.392;2023-07-13T06:55:22;100747.38;;;22.10;52.00
61478;BME280;47345;52.334;10.392;2023-07-13T06:57:53;100745.18;;;22.00;52.59
61478;BME280;47345;52.334;10.392;2023-07-13T07:00:24;100751.73;;;21.94;53.15
61478;BME280;47345;52.334;10.392;2023-07-13T07:02:55;100740.34;;;21.83;53.27
61478;BME280;47345;52.334;10.392;2023-07-13T07:05:26;100737.80;;;21.80;53.97
61478;BME280;47345;52.334;10.392;2023-07-13T07:07:57;100742.95;;;21.87;55.02
61478;BME280;47345;52.334;10.392;2023-07-13T07:10:28;100744.94;;;21.90;54.73
61478;BME280;47345;52.334;10.392;2023-07-13T07:13:00;100747.17;;;21.90;54.58
61478;BME280;47345;52.334;10.392;2023-07-13T07:15:31;100744.23;;;21.87;53.83
61478;BME280;47345;52.334;10.392;2023-07-13T07:18:02;100746.36;;;21.89;53.92
61478;BME280;47345;52.334;10.392;2023-07-13T07:20:33;100743.10;;;21.94;53.52
61478;BME280;47345;52.334;10.392;2023-07-13T07:23:04;100741.35;;;22.00;53.58
61478;BME280;47345;52.334;10.392;2023-07-13T07:25:34;100745.52;;;22.06;53.45
61478;BME280;47345;52.334;10.392;2023-07-13T07:28:12;100750.98;;;22.14;53.00
61478;BME280;47345;52.334;10.392;2023-07-13T07:31:03;100754.63;;;22.19;52.77
61478;BME280;47345;52.334;10.392;2023-07-13T07:33:37;100755.05;;;22.27;52.81
61478;BME280;47345;52.334;10.392;2023-07-13T07:36:08;100750.48;;;22.35;52.11
61478;BME280;47345;52.334;10.392;2023-07-13T07:38:42;100756.31;;;22.39;52.34
61478;BME280;47345;52.334;10.392;2023-07-13T07:41:12;100759.42;;;22.32;51.25
61478;BME280;47345;52.334;10.392;2023-07-13T07:43:46;100757.31;;;22.19;51.85
61478;BME280;47345;52.334;10.392;2023-07-13T07:46:17;100760.45;;;22.17;51.11
61478;BME280;47345;52.334;10.392;2023-07-13T07:48:48;100758.81;;;22.22;50.87
61478;BME280;47345;52.334;10.392;2023-07-13T07:51:18;100759.52;;;22.24;50.39
61478;BME280;47345;52.334;10.392;2023-07-13T07:53:49;100764.61;;;22.21;50.09
61478;BME280;47345;52.334;10.392;2023-07-13T07:56:20;100766.05;;;22.20;50.60
61478;BME280;47345;52.334;10.392;2023-07-13T07:58:53;100765.98;;;22.25;50.75
61478;BME280;47345;52.334;10.392;2023-07-13T08:01:28;100764.66;;;22.32;50.57
61478;BME280;47345;52.334;10.392;2023-07-13T08:04:01;100766.63;;;22.41;50.32
61478;BME280;47345;52.334;10.392;2023-07-13T08:06:35;100770.42;;;22.55;50.13
61478;BME280;47345;52.334;10.392;2023-07-13T08:09:08;100766.89;;;22.69;49.73
61478;BME280;47345;52.334;10.392;2023-07-13T08:11:39;100767.84;;;22.78;48.85
61478;BME280;47345;52.334;10.392;2023-07-13T08:14:13;100769.67;;;22.84;48.08
61478;BME280;47345;52.334;10.392;2023-07-13T08:16:44;100771.33;;;22.94;47.97
61478;BME280;47345;52.334;10.392;2023-07-13T08:19:15;100770.77;;;23.02;47.38
61478;BME280;47345;52.334;10.392;2023-07-13T08:21:45;100773.27;;;23.04;47.07
61478;BME280;47345;52.334;10.392;2023-07-13T08:24:17;100773.46;;;23.07;47.10
61478;BME280;47345;52.334;10.392;2023-07-13T08:26:49;100771.67;;;23.08;46.76
61478;BME280;47345;52.334;10.392;2023-07-13T08:29:21;100771.52;;;23.07;46.87
61478;BME280;47345;52.334;10.392;2023-07-13T08:31:53;100773.61;;;23.16;46.94
61478;BME280;47345;52.334;10.392;2023-07-13T08:34:24;100775.20;;;23.24;47.04
61478;BME280;47345;52.334;10.392;2023-07-13T08:36:55;100771.89;;;23.32;46.89
61478;BME280;47345;52.334;10.392;2023-07-13T08:39:26;100776.37;;;23.41;46.89
61478;BME280;47345;52.334;10.392;2023-07-13T08:42:02;100781.89;;;23.49;46.59
61478;BME280;47345;52.334;10.392;2023-07-13T08:44:48;100780.16;;;23.55;46.40
61478;BME280;47345;52.334;10.392;2023-07-13T08:47:23;100777.23;;;23.67;46.23
61478;BME280;47345;52.334;10.392;2023-07-13T08:49:55;100775.98;;;23.77;45.99
61478;BME280;47345;52.334;10.392;2023-07-13T08:52:33;100779.31;;;23.83;45.65
61478;BME280;47345;52.334;10.392;2023-07-13T08:55:13;100773.79;;;23.83;45.68
61478;BME280;47345;52.334;10.392;2023-07-13T08:57:47;100772.88;;;23.99;45.33
61478;BME280;47345;52.334;10.392;2023-07-13T09:00:19;100773.63;;;24.26;45.28
61478;BME280;47345;52.334;10.392;2023-07-13T09:02:57;100766.52;;;24.51;45.19
61478;BME280;47345;52.334;10.392;2023-07-13T09:05:33;100776.00;;;24.57;43.99
61478;BME280;47345;52.334;10.392;2023-07-13T09:08:17;100773.83;;;24.48;44.50
61478;BME280;47345;52.334;10.392;2023-07-13T09:10:57;100778.92;;;24.61;44.26
61478;BME280;47345;52.334;10.392;2023-07-13T09:13:35;100776.75;;;24.78;43.95
61478;BME280;47345;52.334;10.392;2023-07-13T09:16:11;100779.75;;;24.83;43.87
61478;BME280;47345;52.334;10.392;2023-07-13T09:18:46;100780.48;;;24.90;44.01
61478;BME280;47345;52.334;10.392;2023-07-13T09:21:24;100776.40;;;24.92;44.14
61478;BME280;47345;52.334;10.392;2023-07-13T09:23:59;100777.04;;;25.12;44.22
61478;BME280;47345;52.334;10.392;2023-07-13T09:26:32;100779.92;;;25.27;43.52
61478;BME280;47345;52.334;10.392;2023-07-13T09:29:12;100782.77;;;25.38;42.83
61478;BME280;47345;52.334;10.392;2023-07-13T09:31:49;100782.11;;;25.44;43.06
61478;BME280;47345;52.334;10.392;2023-07-13T09:34:23;100780.29;;;25.72;43.29
61478;BME280;47345;52.334;10.392;2023-07-13T09:36:53;100780.84;;;25.89;42.68
61478;BME280;47345;52.334;10.392;2023-07-13T09:39:27;100778.58;;;25.87;42.98
61478;BME280;47345;52.334;10.392;2023-07-13T09:42:03;100776.66;;;25.74;42.54
61478;BME280;47345;52.334;10.392;2023-07-13T09:44:38;100775.61;;;25.75;42.51
61478;BME280;47345;52.334;10.392;2023-07-13T09:47:17;100781.63;;;25.92;41.69
61478;BME280;47345;52.334;10.392;2023-07-13T09:49:49;100782.46;;;26.00;41.18
61478;BME280;47345;52.334;10.392;2023-07-13T09:52:24;100778.28;;;25.94;41.41
61478;BME280;47345;52.334;10.392;2023-07-13T09:54:56;100779.25;;;25.76;41.90
61478;BME280;47345;52.334;10.392;2023-07-13T09:57:29;100781.07;;;25.62;41.68
61478;BME280;47345;52.334;10.392;2023-07-13T10:00:24;100781.89;;;25.57;42.11
61478;BME280;47345;52.334;10.392;2023-07-13T10:03:17;100777.91;;;25.67;42.03
61478;BME280;47345;52.334;10.392;2023-07-13T10:05:51;100780.80;;;25.77;42.32
61478;BME280;47345;52.334;10.392;2023-07-13T10:08:28;100782.39;;;25.79;41.77
61478;BME280;47345;52.334;10.392;2023-07-13T10:11:02;100780.24;;;25.55;42.45
61478;BME280;47345;52.334;10.392;2023-07-13T10:13:44;100778.70;;;25.16;43.31
61478;BME280;47345;52.334;10.392;2023-07-13T10:16:15;100783.99;;;24.75;43.65
61478;BME280;47345;52.334;10.392;2023-07-13T10:18:50;100789.23;;;24.51;43.71
61478;BME280;47345;52.334;10.392;2023-07-13T10:21:26;100780.70;;;24.48;44.12
61478;BME280;47345;52.334;10.392;2023-07-13T10:24:12;100780.89;;;24.88;44.76
61478;BME280;47345;52.334;10.392;2023-07-13T10:26:50;100779.54;;;25.30;42.95
61478;BME280;47345;52.334;10.392;2023-07-13T10:29:25;100774.78;;;25.69;42.58
61478;BME280;47345;52.334;10.392;2023-07-13T10:31:57;100777.45;;;25.88;42.36
61478;BME280;47345;52.334;10.392;2023-07-13T10:34:29;100777.67;;;25.90;42.59
61478;BME280;47345;52.334;10.392;2023-07-13T10:37:01;100777.00;;;25.93;42.72
61478;BME280;47345;52.334;10.392;2023-07-13T10:39:35;100775.63;;;26.03;42.91
61478;BME280;47345;52.334;10.392;2023-07-13T10:42:08;100774.38;;;26.27;41.98
61478;BME280;47345;52.334;10.392;2023-07-13T10:44:44;100783.35;;;26.37;40.72
61478;BME280;47345;52.334;10.392;2023-07-13T10:47:17;100778.73;;;26.54;40.46
61478;BME280;47345;52.334;10.392;2023-07-13T10:49:52;100779.48;;;26.75;39.97
61478;BME280;47345;52.334;10.392;2023-07-13T10:52:46;100783.26;;;26.91;39.50
61478;BME280;47345;52.334;10.392;2023-07-13T10:55:35;100780.15;;;26.95;39.57
61478;BME280;47345;52.334;10.392;2023-07-13T10:58:21;100780.39;;;27.11;39.29
61478;BME280;47345;52.334;10.392;2023-07-13T11:00:57;100786.91;;;27.10;38.52
61478;BME280;47345;52.334;10.392;2023-07-13T11:03:31;100784.97;;;26.68;39.33
61478;BME280;47345;52.334;10.392;2023-07-13T11:06:12;100786.84;;;26.26;39.84
61478;BME280;47345;52.334;10.392;2023-07-13T11:08:54;100787.27;;;25.98;41.04
61478;BME280;47345;52.334;10.392;2023-07-13T11:11:37;100783.42;;;25.95;43.11
61478;BME280;47345;52.334;10.392;2023-07-13T11:14:29;100783.14;;;26.09;41.53
61478;BME280;47345;52.334;10.392;2023-07-13T11:17:37;100779.92;;;26.35;41.15
61478;BME280;47345;52.334;10.392;2023-07-13T11:20:22;100774.80;;;26.44;39.91
61478;BME280;47345;52.334;10.392;2023-07-13T11:23:07;100785.94;;;26.29;39.32
61478;BME280;47345;52.334;10.392;2023-07-13T11:25:38;100782.50;;;25.96;40.31
61478;BME280;47345;52.334;10.392;2023-07-13T11:28:18;100786.02;;;25.64;40.67
61478;BME280;47345;52.334;10.392;2023-07-13T11:31:03;100778.97;;;25.44;42.38
61478;BME280;47345;52.334;10.392;2023-07-13T11:33:52;100776.36;;;25.59;40.60
61478;BME280;47345;52.334;10.392;2023-07-13T11:36:28;100777.49;;;25.83;40.71
61478;BME280;47345;52.334;10.392;2023-07-13T11:39:03;100775.01;;;25.95;41.50
61478;BME280;47345;52.334;10.392;2023-07-13T11:41:37;100771.75;;;25.87;41.73
61478;BME280;47345;52.334;10.392;2023-07-13T11:44:15;100768.54;;;25.61;41.39
61478;BME280;47345;52.334;10.392;2023-07-13T11:46:48;100771.89;;;25.65;42.13
61478;BME280;47345;52.334;10.392;2023-07-13T11:49:24;100777.81;;;25.87;40.07
61478;BME280;47345;52.334;10.392;2023-07-13T11:51:57;100774.90;;;26.09;41.70
61478;BME280;47345;52.334;10.392;2023-07-13T11:54:30;100773.11;;;26.42;40.50
61478;BME280;47345;52.334;10.392;2023-07-13T11:57:10;100766.58;;;26.78;38.90
61478;BME280;47345;52.334;10.392;2023-07-13T11:59:44;100770.92;;;27.17;37.71
61478;BME280;47345;52.334;10.392;2023-07-13T12:02:21;100769.65;;;27.29;35.60
61478;BME280;47345;52.334;10.392;2023-07-13T12:04:56;100759.91;;;27.55;35.39
61478;BME280;47345;52.334;10.392;2023-07-13T12:07:30;100761.84;;;27.90;35.20
61478;BME280;47345;52.334;10.392;2023-07-13T12:10:03;100758.73;;;28.19;34.74
61478;BME280;47345;52.334;10.392;2023-07-13T12:12:48;100755.73;;;28.43;35.02
61478;BME280;47345;52.334;10.392;2023-07-13T12:15:21;100756.77;;;28.81;34.47
61478;BME280;47345;52.334;10.392;2023-07-13T12:17:52;100759.39;;;29.14;33.97
61478;BME280;47345;52.334;10.392;2023-07-13T12:20:28;100757.30;;;29.39;33.23
61478;BME280;47345;52.334;10.392;2023-07-13T12:23:00;100763.16;;;29.25;32.27
61478;BME280;47345;52.334;10.392;2023-07-13T12:25:35;100768.55;;;28.96;32.08
61478;BME280;47345;52.334;10.392;2023-07-13T12:28:21;100772.16;;;28.61;32.75
61478;BME280;47345;52.334;10.392;2023-07-13T12:30:59;100772.83;;;28.56;33.71
61478;BME280;47345;52.334;10.392;2023-07-13T12:33:31;100769.27;;;28.72;33.67
61478;BME280;47345;52.334;10.392;2023-07-13T12:36:05;100761.98;;;28.82;33.12
61478;BME280;47345;52.334;10.392;2023-07-13T12:38:37;100764.38;;;28.91;32.48
61478;BME280;47345;52.334;10.392;2023-07-13T12:41:09;100769.11;;;28.97;32.68
61478;BME280;47345;52.334;10.392;2023-07-13T12:43:40;100764.56;;;29.14;32.72
61478;BME280;47345;52.334;10.392;2023-07-13T12:46:19;100764.70;;;29.21;32.33
61478;BME280;47345;52.334;10.392;2023-07-13T12:48:53;100762.05;;;29.21;32.21
61478;BME280;47345;52.334;10.392;2023-07-13T12:51:44;100760.67;;;29.12;33.07
61478;BME280;47345;52.334;10.392;2023-07-13T12:54:18;100761.99;;;29.07;33.90
61478;BME280;47345;52.334;10.392;2023-07-13T12:56:52;100754.96;;;28.83;33.76
61478;BME280;47345;52.334;10.392;2023-07-13T12:59:29;100760.39;;;28.46;33.76
61478;BME280;47345;52.334;10.392;2023-07-13T13:02:00;100761.77;;;28.26;34.37
61478;BME280;47345;52.334;10.392;2023-07-13T13:04:32;100754.14;;;28.28;34.60
61478;BME280;47345;52.334;10.392;2023-07-13T13:07:07;100759.05;;;28.54;33.74
61478;BME280;47345;52.334;10.392;2023-07-13T13:09:38;100762.67;;;28.78;32.98
61478;BME280;47345;52.334;10.392;2023-07-13T13:12:10;100759.74;;;28.89;32.31